sensor_id;sensor_type;location;lat;lon;timestamp;temperature;humidity
56256;DHT22;57229;51.432;-2.598;2024-01-30T00:01:50;11.00;99.90
56256;DHT22;57229;51.432;-2.598;2024-01-30T00:04:16;10.60;99.90
56256;DHT22;57229;51.432;-2.598;2024-01-30T00:06:43;10.60;99.90
56256;DHT22;57229;51.432;-2.598;2024-01-30T00:09:08;10.60;99.90
56256;DHT22;57229;51.432;-2.598;2024-01-30T00:11:35;10.60;99.90
56256;DHT22;57229;51.432;-2.598;2024-01-30T00:14:01;10.70;99.90
56256;DHT22;57229;51.432;-2.598;2024-01-30T00:16:27;10.70;99.90
56256;DHT22;57229;51.432;-2.598;2024-01-30T00:18:53;10.90;99.90
56256;DHT22;57229;51.432;-2.598;2024-01-30T00:21:19;10.70;99.90
56256;DHT22;57229;51.432;-2.598;2024-01-30T00:23:45;10.70;99.90
56256;DHT22;57229;51.432;-2.598;2024-01-30T00:26:11;10.70;99.90
56256;DHT22;57229;51.432;-2.598;2024-01-30T00:28:38;10.70;99.90
56256;DHT22;57229;51.432;-2.598;2024-01-30T00:31:03;10.70;99.90
56256;DHT22;57229;51.432;-2.598;2024-01-30T00:33:29;10.70;99.90
56256;DHT22;57229;51.432;-2.598;2024-01-30T00:35:55;10.60;99.90
56256;DHT22;57229;51.432;-2.598;2024-01-30T00:38:20;10.70;99.90
56256;DHT22;57229;51.432;-2.598;2024-01-30T00:40:46;10.70;99.90
56256;DHT22;57229;51.432;-2.598;2024-01-30T00:43:12;10.60;99.90
56256;DHT22;57229;51.432;-2.598;2024-01-30T00:45:37;10.70;99.90
56256;DHT22;57229;51.432;-2.598;2024-01-30T00:48:03;10.70;99.90
56256;DHT22;57229;51.432;-2.598;2024-01-30T00:50:29;10.70;99.90
56256;DHT22;57229;51.432;-2.598;2024-01-30T00:52:55;10.70;99.90
56256;DHT22;57229;51.432;-2.598;2024-01-30T00:55:20;10.70;99.90
56256;DHT22;57229;51.432;-2.598;2024-01-30T00:57:46;11.10;99.90
56256;DHT22;57229;51.432;-2.598;2024-01-30T01:00:13;10.50;99.90
56256;DHT22;57229;51.432;-2.598;2024-01-30T01:02:41;9.90;99.90
56256;DHT22;57229;51.432;-2.598;2024-01-30T01:05:07;9.70;99.90
56256;DHT22;57229;51.432;-2.598;2024-01-30T01:07:32;9.40;99.90
56256;DHT22;57229;51.432;-2.598;2024-01-30T01:09:58;9.20;99.90
56256;DHT22;57229;51.432;-2.598;2024-01-30T01:12:23;9.00;99.90
56256;DHT22;57229;51.432;-2.598;2024-01-30T01:14:49;8.90;99.90
56256;DHT22;57229;51.432;-2.598;2024-01-30T01:17:14;8.80;99.90
56256;DHT22;57229;51.432;-2.598;2024-01-30T01:19:40;8.80;99.90
56256;DHT22;57229;51.432;-2.598;2024-01-30T01:22:05;8.80;99.90
56256;DHT22;57229;51.432;-2.598;2024-01-30T01:24:31;8.70;99.90
56256;DHT22;57229;51.432;-2.598;2024-01-30T01:26:58;8.70;99.90
56256;DHT22;57229;51.432;-2.598;2024-01-30T01:29:24;9.30;99.90
56256;DHT22;57229;51.432;-2.598;2024-01-30T01:31:54;8.60;99.90
56256;DHT22;57229;51.432;-2.598;2024-01-30T01:34:21;9.10;99.90
56256;DHT22;57229;51.432;-2.598;2024-01-30T01:36:47;9.40;99.90
56256;DHT22;57229;51.432;-2.598;2024-01-30T01:39:12;8.60;99.90
56256;DHT22;57229;51.432;-2.598;2024-01-30T01:41:38;10.00;99.90
56256;DHT22;57229;51.432;-2.598;2024-01-30T01:44:04;8.60;99.90
56256;DHT22;57229;51.432;-2.598;2024-01-30T01:46:32;8.60;99.90
56256;DHT22;57229;51.432;-2.598;2024-01-30T01:48:58;8.70;99.90
56256;DHT22;57229;51.432;-2.598;2024-01-30T01:51:27;8.60;99.90
56256;DHT22;57229;51.432;-2.598;2024-01-30T01:53:54;8.50;99.90
56256;DHT22;57229;51.432;-2.598;2024-01-30T01:56:21;8.70;99.90
56256;DHT22;57229;51.432;-2.598;2024-01-30T01:58:48;9.40;99.90
56256;DHT22;57229;51.432;-2.598;2024-01-30T02:01:17;8.50;99.90
56256;DHT22;57229;51.432;-2.598;2024-01-30T02:03:44;8.50;99.90
56256;DHT22;57229;51.432;-2.598;2024-01-30T02:06:10;8.50;99.90
56256;DHT22;57229;51.432;-2.598;2024-01-30T02:08:37;8.40;99.90
56256;DHT22;57229;51.432;-2.598;2024-01-30T02:11:04;8.50;99.90
56256;DHT22;57229;51.432;-2.598;2024-01-30T02:13:30;8.40;99.90
56256;DHT22;57229;51.432;-2.598;2024-01-30T02:15:56;8.60;99.90
56256;DHT22;57229;51.432;-2.598;2024-01-30T02:18:22;8.30;99.90
56256;DHT22;57229;51.432;-2.598;2024-01-30T02:20:48;9.10;99.90
56256;DHT22;57229;51.432;-2.598;2024-01-30T02:23:15;8.30;99.90
56256;DHT22;57229;51.432;-2.598;2024-01-30T02:25:42;8.80;99.90
56256;DHT22;57229;51.432;-2.598;2024-01-30T02:28:10;8.70;99.90
56256;DHT22;57229;51.432;-2.598;2024-01-30T02:30:37;8.30;99.90
56256;DHT22;57229;51.432;-2.598;2024-01-30T02:33:03;8.30;99.90
56256;DHT22;57229;51.432;-2.598;2024-01-30T02:35:28;8.30;99.90
56256;DHT22;57229;51.432;-2.598;2024-01-30T02:37:54;8.20;99.90
56256;DHT22;57229;51.432;-2.598;2024-01-30T02:40:20;8.20;99.90
56256;DHT22;57229;51.432;-2.598;2024-01-30T02:42:45;8.80;99.90
56256;DHT22;57229;51.432;-2.598;2024-01-30T02:45:11;8.10;99.90
56256;DHT22;57229;51.432;-2.598;2024-01-30T02:47:38;8.00;99.90
56256;DHT22;57229;51.432;-2.598;2024-01-30T02:50:04;8.00;99.90
56256;DHT22;57229;51.432;-2.598;2024-01-30T02:52:30;7.90;99.90
56256;DHT22;57229;51.432;-2.598;2024-01-30T02:54:55;7.90;99.90
56256;DHT22;57229;51.432;-2.598;2024-01-30T02:57:21;7.90;99.90
56256;DHT22;57229;51.432;-2.598;2024-01-30T02:59:46;7.90;99.90
56256;DHT22;57229;51.432;-2.598;2024-01-30T03:02:12;7.80;99.90
56256;DHT22;57229;51.432;-2.598;2024-01-30T03:04:41;7.80;99.90
56256;DHT22;57229;51.432;-2.598;2024-01-30T03:07:06;8.00;99.90
56256;DHT22;57229;51.432;-2.598;2024-01-30T03:09:32;8.30;99.90
56256;DHT22;57229;51.432;-2.598;2024-01-30T03:11:58;9.10;99.90
56256;DHT22;57229;51.432;-2.598;2024-01-30T03:14:24;7.80;99.90
56256;DHT22;57229;51.432;-2.598;2024-01-30T03:16:49;7.80;99.90
56256;DHT22;57229;51.432;-2.598;2024-01-30T03:19:15;7.90;99.90
56256;DHT22;57229;51.432;-2.598;2024-01-30T03:21:41;7.90;99.90
56256;DHT22;57229;51.432;-2.598;2024-01-30T03:24:07;7.90;99.90
56256;DHT22;57229;51.432;-2.598;2024-01-30T03:26:32;8.00;99.90
56256;DHT22;57229;51.432;-2.598;2024-01-30T03:28:58;8.00;99.90
56256;DHT22;57229;51.432;-2.598;2024-01-30T03:31:23;8.00;99.90
56256;DHT22;57229;51.432;-2.598;2024-01-30T03:33:49;8.00;99.90
56256;DHT22;57229;51.432;-2.598;2024-01-30T03:36:15;8.00;99.90
56256;DHT22;57229;51.432;-2.598;2024-01-30T03:38:41;8.10;99.90
56256;DHT22;57229;51.432;-2.598;2024-01-30T03:41:08;8.00;99.90
56256;DHT22;57229;51.432;-2.598;2024-01-30T03:43:34;8.00;99.90
56256;DHT22;57229;51.432;-2.598;2024-01-30T03:46:01;8.10;99.90
56256;DHT22;57229;51.432;-2.598;2024-01-30T03:48:27;8.10;99.90
56256;DHT22;57229;51.432;-2.598;2024-01-30T03:50:53;8.60;99.90
56256;DHT22;57229;51.432;-2.598;2024-01-30T03:53:18;8.30;99.90
56256;DHT22;57229;51.432;-2.598;2024-01-30T03:55:44;9.00;99.90
56256;DHT22;57229;51.432;-2.598;2024-01-30T03:58:10;8.00;99.90
56256;DHT22;57229;51.432;-2.598;2024-01-30T04:00:35;8.20;99.90
56256;DHT22;57229;51.432;-2.598;2024-01-30T04:03:01;8.00;99.90
56256;DHT22;57229;51.432;-2.598;2024-01-30T04:05:26;8.00;99.90
56256;DHT22;57229;51.432;-2.598;2024-01-30T04:07:52;8.20;99.90
56256;DHT22;57229;51.432;-2.598;2024-01-30T04:10:17;8.00;99.90
56256;DHT22;57229;51.432;-2.598;2024-01-30T04:12:43;8.20;99.90
56256;DHT22;57229;51.432;-2.598;2024-01-30T04:15:09;8.00;99.90
56256;DHT22;57229;51.432;-2.598;2024-01-30T04:17:34;7.90;99.90
56256;DHT22;57229;51.432;-2.598;2024-01-30T04:20:00;7.90;99.90
56256;DHT22;57229;51.432;-2.598;2024-01-30T04:22:26;8.00;99.90
56256;DHT22;57229;51.432;-2.598;2024-01-30T04:24:51;7.90;99.90
56256;DHT22;57229;51.432;-2.598;2024-01-30T04:27:17;7.90;99.90
56256;DHT22;57229;51.432;-2.598;2024-01-30T04:29:42;8.00;99.90
56256;DHT22;57229;51.432;-2.598;2024-01-30T04:32:09;8.10;99.90
56256;DHT22;57229;51.432;-2.598;2024-01-30T04:34:36;8.00;99.90
56256;DHT22;57229;51.432;-2.598;2024-01-30T04:37:02;7.90;99.90
56256;DHT22;57229;51.432;-2.598;2024-01-30T04:39:27;7.90;99.90
56256;DHT22;57229;51.432;-2.598;2024-01-30T04:41:53;7.90;99.90
56256;DHT22;57229;51.432;-2.598;2024-01-30T04:44:18;7.90;99.90
56256;DHT22;57229;51.432;-2.598;2024-01-30T04:46:44;7.90;99.90
56256;DHT22;57229;51.432;-2.598;2024-01-30T04:49:10;7.80;99.90
56256;DHT22;57229;51.432;-2.598;2024-01-30T04:51:36;7.80;99.90
56256;DHT22;57229;51.432;-2.598;2024-01-30T04:54:01;8.00;99.90
56256;DHT22;57229;51.432;-2.598;2024-01-30T04:56:27;7.80;99.90
56256;DHT22;57229;51.432;-2.598;2024-01-30T04:58:52;8.80;99.90
56256;DHT22;57229;51.432;-2.598;2024-01-30T05:01:18;8.10;99.90
56256;DHT22;57229;51.432;-2.598;2024-01-30T05:03:44;8.00;99.90
56256;DHT22;57229;51.432;-2.598;2024-01-30T05:06:09;7.70;99.90
56256;DHT22;57229;51.432;-2.598;2024-01-30T05:08:35;7.70;99.90
56256;DHT22;57229;51.432;-2.598;2024-01-30T05:11:02;7.70;99.90
56256;DHT22;57229;51.432;-2.598;2024-01-30T05:13:31;7.70;99.90
56256;DHT22;57229;51.432;-2.598;2024-01-30T05:15:57;8.10;99.90
56256;DHT22;57229;51.432;-2.598;2024-01-30T05:18:23;7.70;99.90
56256;DHT22;57229;51.432;-2.598;2024-01-30T05:20:50;7.70;99.90
56256;DHT22;57229;51.432;-2.598;2024-01-30T05:23:16;8.50;99.90
56256;DHT22;57229;51.432;-2.598;2024-01-30T05:25:41;7.70;99.90
56256;DHT22;57229;51.432;-2.598;2024-01-30T05:28:07;7.80;99.90
56256;DHT22;57229;51.432;-2.598;2024-01-30T05:30:33;7.80;99.90
56256;DHT22;57229;51.432;-2.598;2024-01-30T05:32:58;7.80;99.90
56256;DHT22;57229;51.432;-2.598;2024-01-30T05:35:24;7.80;99.90
56256;DHT22;57229;51.432;-2.598;2024-01-30T05:37:49;7.80;99.90
56256;DHT22;57229;51.432;-2.598;2024-01-30T05:40:15;7.70;99.90
56256;DHT22;57229;51.432;-2.598;2024-01-30T05:42:42;7.80;99.90
56256;DHT22;57229;51.432;-2.598;2024-01-30T05:45:07;7.70;99.90
56256;DHT22;57229;51.432;-2.598;2024-01-30T05:47:36;7.70;99.90
56256;DHT22;57229;51.432;-2.598;2024-01-30T05:50:02;7.70;99.90
56256;DHT22;57229;51.432;-2.598;2024-01-30T05:52:28;7.70;99.90
56256;DHT22;57229;51.432;-2.598;2024-01-30T05:54:54;7.70;99.90
56256;DHT22;57229;51.432;-2.598;2024-01-30T05:57:20;9.30;99.90
56256;DHT22;57229;51.432;-2.598;2024-01-30T05:59:45;7.60;99.90
56256;DHT22;57229;51.432;-2.598;2024-01-30T06:02:13;7.60;99.90
56256;DHT22;57229;51.432;-2.598;2024-01-30T06:04:39;7.60;99.90
56256;DHT22;57229;51.432;-2.598;2024-01-30T06:07:04;7.60;99.90
56256;DHT22;57229;51.432;-2.598;2024-01-30T06:09:31;7.60;99.90
56256;DHT22;57229;51.432;-2.598;2024-01-30T06:11:57;8.20;99.90
56256;DHT22;57229;51.432;-2.598;2024-01-30T06:14:23;8.60;99.90
56256;DHT22;57229;51.432;-2.598;2024-01-30T06:16:49;8.10;99.90
56256;DHT22;57229;51.432;-2.598;2024-01-30T06:19:15;7.60;99.90
56256;DHT22;57229;51.432;-2.598;2024-01-30T06:21:41;7.70;99.90
56256;DHT22;57229;51.432;-2.598;2024-01-30T06:24:06;7.80;99.90
56256;DHT22;57229;51.432;-2.598;2024-01-30T06:26:32;7.60;99.90
56256;DHT22;57229;51.432;-2.598;2024-01-30T06:28:57;7.60;99.90
56256;DHT22;57229;51.432;-2.598;2024-01-30T06:31:23;7.60;99.90
56256;DHT22;57229;51.432;-2.598;2024-01-30T06:33:49;7.90;99.90
56256;DHT22;57229;51.432;-2.598;2024-01-30T06:36:15;7.60;99.90
56256;DHT22;57229;51.432;-2.598;2024-01-30T06:38:41;7.50;99.90
56256;DHT22;57229;51.432;-2.598;2024-01-30T06:41:07;7.50;99.90
56256;DHT22;57229;51.432;-2.598;2024-01-30T06:43:32;7.60;99.90
56256;DHT22;57229;51.432;-2.598;2024-01-30T06:45:58;7.50;99.90
56256;DHT22;57229;51.432;-2.598;2024-01-30T06:48:25;7.50;99.90
56256;DHT22;57229;51.432;-2.598;2024-01-30T06:50:53;7.50;99.90
56256;DHT22;57229;51.432;-2.598;2024-01-30T06:53:19;7.60;99.90
56256;DHT22;57229;51.432;-2.598;2024-01-30T06:55:45;7.40;99.90
56256;DHT22;57229;51.432;-2.598;2024-01-30T06:58:10;7.90;99.90
56256;DHT22;57229;51.432;-2.598;2024-01-30T07:00:36;7.40;99.90
56256;DHT22;57229;51.432;-2.598;2024-01-30T07:03:01;7.30;99.90
56256;DHT22;57229;51.432;-2.598;2024-01-30T07:05:27;7.50;99.90
56256;DHT22;57229;51.432;-2.598;2024-01-30T07:07:53;8.20;99.90
56256;DHT22;57229;51.432;-2.598;2024-01-30T07:10:18;7.30;99.90
56256;DHT22;57229;51.432;-2.598;2024-01-30T07:12:44;7.30;99.90
56256;DHT22;57229;51.432;-2.598;2024-01-30T07:15:10;7.30;99.90
56256;DHT22;57229;51.432;-2.598;2024-01-30T07:17:35;8.20;99.90
56256;DHT22;57229;51.432;-2.598;2024-01-30T07:20:02;7.30;99.90
56256;DHT22;57229;51.432;-2.598;2024-01-30T07:22:31;7.20;99.90
56256;DHT22;57229;51.432;-2.598;2024-01-30T07:24:56;7.30;99.90
56256;DHT22;57229;51.432;-2.598;2024-01-30T07:27:22;7.30;99.90
56256;DHT22;57229;51.432;-2.598;2024-01-30T07:29:48;7.20;99.90
56256;DHT22;57229;51.432;-2.598;2024-01-30T07:32:14;7.20;99.90
56256;DHT22;57229;51.432;-2.598;2024-01-30T07:34:39;7.30;99.90
56256;DHT22;57229;51.432;-2.598;2024-01-30T07:37:05;8.00;99.90
56256;DHT22;57229;51.432;-2.598;2024-01-30T07:39:33;7.30;99.90
56256;DHT22;57229;51.432;-2.598;2024-01-30T07:41:59;7.20;99.90
56256;DHT22;57229;51.432;-2.598;2024-01-30T07:44:25;7.20;99.90
56256;DHT22;57229;51.432;-2.598;2024-01-30T07:46:50;7.20;99.90
56256;DHT22;57229;51.432;-2.598;2024-01-30T07:49:16;7.20;99.90
56256;DHT22;57229;51.432;-2.598;2024-01-30T07:51:41;7.20;99.90
56256;DHT22;57229;51.432;-2.598;2024-01-30T07:54:08;7.20;99.90
56256;DHT22;57229;51.432;-2.598;2024-01-30T07:56:34;8.40;99.90
56256;DHT22;57229;51.432;-2.598;2024-01-30T07:58:59;7.20;99.90
56256;DHT22;57229;51.432;-2.598;2024-01-30T08:01:25;7.20;99.90
56256;DHT22;57229;51.432;-2.598;2024-01-30T08:03:50;7.10;99.90
56256;DHT22;57229;51.432;-2.598;2024-01-30T08:06:16;7.10;99.90
56256;DHT22;57229;51.432;-2.598;2024-01-30T08:08:42;7.10;99.90
56256;DHT22;57229;51.432;-2.598;2024-01-30T08:11:07;7.10;99.90
56256;DHT22;57229;51.432;-2.598;2024-01-30T08:13:33;7.10;99.90
56256;DHT22;57229;51.432;-2.598;2024-01-30T08:15:59;7.10;99.90
56256;DHT22;57229;51.432;-2.598;2024-01-30T08:18:24;7.10;99.90
56256;DHT22;57229;51.432;-2.598;2024-01-30T08:20:50;7.20;99.90
56256;DHT22;57229;51.432;-2.598;2024-01-30T08:23:15;7.20;99.90
56256;DHT22;57229;51.432;-2.598;2024-01-30T08:25:41;7.20;99.90
56256;DHT22;57229;51.432;-2.598;2024-01-30T08:28:07;7.20;99.90
56256;DHT22;57229;51.432;-2.598;2024-01-30T08:30:33;7.20;99.90
56256;DHT22;57229;51.432;-2.598;2024-01-30T08:32:59;7.30;99.90
56256;DHT22;57229;51.432;-2.598;2024-01-30T08:35:24;7.50;99.90
56256;DHT22;57229;51.432;-2.598;2024-01-30T08:37:50;7.20;99.90
56256;DHT22;57229;51.432;-2.598;2024-01-30T08:40:15;7.20;99.90
56256;DHT22;57229;51.432;-2.598;2024-01-30T08:42:41;7.30;99.90
56256;DHT22;57229;51.432;-2.598;2024-01-30T08:45:07;7.30;99.90
56256;DHT22;57229;51.432;-2.598;2024-01-30T08:47:33;7.30;99.90
56256;DHT22;57229;51.432;-2.598;2024-01-30T08:49:59;7.30;99.90
56256;DHT22;57229;51.432;-2.598;2024-01-30T08:52:24;7.30;99.90
56256;DHT22;57229;51.432;-2.598;2024-01-30T08:54:50;7.20;99.90
56256;DHT22;57229;51.432;-2.598;2024-01-30T08:57:16;7.20;99.90
56256;DHT22;57229;51.432;-2.598;2024-01-30T08:59:41;7.30;99.90
56256;DHT22;57229;51.432;-2.598;2024-01-30T09:02:09;7.10;99.90
56256;DHT22;57229;51.432;-2.598;2024-01-30T09:04:35;8.10;99.90
56256;DHT22;57229;51.432;-2.598;2024-01-30T09:07:01;7.10;99.90
56256;DHT22;57229;51.432;-2.598;2024-01-30T09:09:26;7.10;99.90
56256;DHT22;57229;51.432;-2.598;2024-01-30T09:11:52;7.10;99.90
56256;DHT22;57229;51.432;-2.598;2024-01-30T09:14:17;7.10;99.90
56256;DHT22;57229;51.432;-2.598;2024-01-30T09:16:43;7.10;99.90
56256;DHT22;57229;51.432;-2.598;2024-01-30T09:19:09;7.10;99.90
56256;DHT22;57229;51.432;-2.598;2024-01-30T09:21:34;7.30;99.90
56256;DHT22;57229;51.432;-2.598;2024-01-30T09:24:03;7.50;99.90
56256;DHT22;57229;51.432;-2.598;2024-01-30T09:26:29;7.70;99.90
56256;DHT22;57229;51.432;-2.598;2024-01-30T09:28:55;7.80;99.90
56256;DHT22;57229;51.432;-2.598;2024-01-30T09:31:20;7.80;99.90
56256;DHT22;57229;51.432;-2.598;2024-01-30T09:33:46;8.00;99.90
56256;DHT22;57229;51.432;-2.598;2024-01-30T09:36:13;7.80;99.90
56256;DHT22;57229;51.432;-2.598;2024-01-30T09:38:41;7.70;99.90
56256;DHT22;57229;51.432;-2.598;2024-01-30T09:41:09;7.70;99.90
56256;DHT22;57229;51.432;-2.598;2024-01-30T09:43:38;7.70;99.90
56256;DHT22;57229;51.432;-2.598;2024-01-30T09:46:05;7.70;99.90
56256;DHT22;57229;51.432;-2.598;2024-01-30T09:48:32;7.70;99.90
56256;DHT22;57229;51.432;-2.598;2024-01-30T09:50:59;7.70;99.90
56256;DHT22;57229;51.432;-2.598;2024-01-30T09:53:25;7.80;99.90
56256;DHT22;57229;51.432;-2.598;2024-01-30T09:55:51;8.40;99.90
56256;DHT22;57229;51.432;-2.598;2024-01-30T09:58:16;7.80;99.90
56256;DHT22;57229;51.432;-2.598;2024-01-30T10:00:42;7.80;99.90
56256;DHT22;57229;51.432;-2.598;2024-01-30T10:03:08;8.40;99.90
56256;DHT22;57229;51.432;-2.598;2024-01-30T10:05:35;7.90;99.90
56256;DHT22;57229;51.432;-2.598;2024-01-30T10:08:06;7.80;99.90
56256;DHT22;57229;51.432;-2.598;2024-01-30T10:10:31;8.30;99.90
56256;DHT22;57229;51.432;-2.598;2024-01-30T10:12:57;7.80;99.90
56256;DHT22;57229;51.432;-2.598;2024-01-30T10:15:23;8.70;99.90
56256;DHT22;57229;51.432;-2.598;2024-01-30T10:17:49;7.80;99.90
56256;DHT22;57229;51.432;-2.598;2024-01-30T10:20:15;8.40;99.90
56256;DHT22;57229;51.432;-2.598;2024-01-30T10:22:44;8.50;99.90
56256;DHT22;57229;51.432;-2.598;2024-01-30T10:25:11;7.80;99.90
56256;DHT22;57229;51.432;-2.598;2024-01-30T10:27:36;8.40;99.90
56256;DHT22;57229;51.432;-2.598;2024-01-30T10:30:05;7.80;99.90
56256;DHT22;57229;51.432;-2.598;2024-01-30T10:32:30;7.80;99.90
56256;DHT22;57229;51.432;-2.598;2024-01-30T10:34:56;7.80;99.90
56256;DHT22;57229;51.432;-2.598;2024-01-30T10:37:25;7.80;99.90
56256;DHT22;57229;51.432;-2.598;2024-01-30T10:39:53;7.80;99.90
56256;DHT22;57229;51.432;-2.598;2024-01-30T10:42:20;8.20;99.90
56256;DHT22;57229;51.432;-2.598;2024-01-30T10:45:01;7.80;99.90
56256;DHT22;57229;51.432;-2.598;2024-01-30T10:47:29;7.80;99.90
56256;DHT22;57229;51.432;-2.598;2024-01-30T10:49:56;7.90;99.90
56256;DHT22;57229;51.432;-2.598;2024-01-30T10:52:23;7.80;99.90
56256;DHT22;57229;51.432;-2.598;2024-01-30T10:54:55;8.00;99.90
56256;DHT22;57229;51.432;-2.598;2024-01-30T10:57:23;7.90;99.90
56256;DHT22;57229;51.432;-2.598;2024-01-30T10:59:50;7.90;99.90
56256;DHT22;57229;51.432;-2.598;2024-01-30T11:02:17;7.90;99.90
56256;DHT22;57229;51.432;-2.598;2024-01-30T11:04:43;7.90;99.90
56256;DHT22;57229;51.432;-2.598;2024-01-30T11:07:16;8.00;99.90
56256;DHT22;57229;51.432;-2.598;2024-01-30T11:09:49;8.00;99.90
56256;DHT22;57229;51.432;-2.598;2024-01-30T11:12:15;8.00;99.90
56256;DHT22;57229;51.432;-2.598;2024-01-30T11:14:40;8.10;99.90
56256;DHT22;57229;51.432;-2.598;2024-01-30T11:17:06;8.00;99.90
56256;DHT22;57229;51.432;-2.598;2024-01-30T11:19:32;8.60;99.90
56256;DHT22;57229;51.432;-2.598;2024-01-30T11:21:59;8.10;99.90
56256;DHT22;57229;51.432;-2.598;2024-01-30T11:24:26;8.00;99.90
56256;DHT22;57229;51.432;-2.598;2024-01-30T11:26:58;8.70;99.90
56256;DHT22;57229;51.432;-2.598;2024-01-30T11:29:28;8.10;99.90
56256;DHT22;57229;51.432;-2.598;2024-01-30T11:31:57;8.10;99.90
56256;DHT22;57229;51.432;-2.598;2024-01-30T11:34:23;8.20;99.90
56256;DHT22;57229;51.432;-2.598;2024-01-30T11:36:52;8.30;99.90
56256;DHT22;57229;51.432;-2.598;2024-01-30T11:39:21;9.10;99.90
56256;DHT22;57229;51.432;-2.598;2024-01-30T11:41:50;8.20;99.90
56256;DHT22;57229;51.432;-2.598;2024-01-30T11:44:16;9.30;99.90
56256;DHT22;57229;51.432;-2.598;2024-01-30T11:46:41;8.30;99.90
56256;DHT22;57229;51.432;-2.598;2024-01-30T11:49:07;8.40;99.90
56256;DHT22;57229;51.432;-2.598;2024-01-30T11:51:33;8.40;99.90
56256;DHT22;57229;51.432;-2.598;2024-01-30T11:53:58;8.40;99.90
56256;DHT22;57229;51.432;-2.598;2024-01-30T11:56:24;8.40;99.90
56256;DHT22;57229;51.432;-2.598;2024-01-30T11:58:50;8.50;99.90
56256;DHT22;57229;51.432;-2.598;2024-01-30T12:01:17;8.50;99.90
56256;DHT22;57229;51.432;-2.598;2024-01-30T12:03:49;8.50;99.90
56256;DHT22;57229;51.432;-2.598;2024-01-30T12:06:16;8.50;99.90
56256;DHT22;57229;51.432;-2.598;2024-01-30T12:08:42;9.20;99.90
56256;DHT22;57229;51.432;-2.598;2024-01-30T12:11:07;9.10;99.90
56256;DHT22;57229;51.432;-2.598;2024-01-30T12:13:34;8.50;99.90
56256;DHT22;57229;51.432;-2.598;2024-01-30T12:16:03;8.50;99.90
56256;DHT22;57229;51.432;-2.598;2024-01-30T12:18:28;8.60;99.90
56256;DHT22;57229;51.432;-2.598;2024-01-30T12:21:00;8.70;99.90
56256;DHT22;57229;51.432;-2.598;2024-01-30T12:23:29;8.80;99.90
56256;DHT22;57229;51.432;-2.598;2024-01-30T12:25:54;8.60;99.90
56256;DHT22;57229;51.432;-2.598;2024-01-30T12:28:20;8.60;99.90
56256;DHT22;57229;51.432;-2.598;2024-01-30T12:30:46;8.90;99.90
56256;DHT22;57229;51.432;-2.598;2024-01-30T12:33:18;8.60;99.90
56256;DHT22;57229;51.432;-2.598;2024-01-30T12:35:47;8.60;99.90
56256;DHT22;57229;51.432;-2.598;2024-01-30T12:38:14;8.60;99.90
56256;DHT22;57229;51.432;-2.598;2024-01-30T12:40:40;8.70;99.90
56256;DHT22;57229;51.432;-2.598;2024-01-30T12:43:05;8.60;99.90
56256;DHT22;57229;51.432;-2.598;2024-01-30T12:45:31;8.80;99.90
56256;DHT22;57229;51.432;-2.598;2024-01-30T12:47:57;9.00;99.90
56256;DHT22;57229;51.432;-2.598;2024-01-30T12:50:23;9.20;99.90
56256;DHT22;57229;51.432;-2.598;2024-01-30T12:52:49;9.20;99.90
56256;DHT22;57229;51.432;-2.598;2024-01-30T12:55:15;9.90;99.90
56256;DHT22;57229;51.432;-2.598;2024-01-30T12:57:41;9.30;99.90
56256;DHT22;57229;51.432;-2.598;2024-01-30T13:00:07;10.10;99.90
56256;DHT22;57229;51.432;-2.598;2024-01-30T13:02:36;9.10;99.90
56256;DHT22;57229;51.432;-2.598;2024-01-30T13:05:05;9.20;99.90
56256;DHT22;57229;51.432;-2.598;2024-01-30T13:07:31;9.20;99.90
56256;DHT22;57229;51.432;-2.598;2024-01-30T13:09:57;9.60;99.90
56256;DHT22;57229;51.432;-2.598;2024-01-30T13:12:28;9.40;99.90
56256;DHT22;57229;51.432;-2.598;2024-01-30T13:14:54;10.30;99.90
56256;DHT22;57229;51.432;-2.598;2024-01-30T13:17:20;10.20;99.90
56256;DHT22;57229;51.432;-2.598;2024-01-30T13:19:45;9.60;99.90
56256;DHT22;57229;51.432;-2.598;2024-01-30T13:22:11;9.60;99.90
56256;DHT22;57229;51.432;-2.598;2024-01-30T13:24:37;9.70;99.90
56256;DHT22;57229;51.432;-2.598;2024-01-30T13:27:02;9.70;99.90
56256;DHT22;57229;51.432;-2.598;2024-01-30T13:29:31;9.80;99.90
56256;DHT22;57229;51.432;-2.598;2024-01-30T13:31:56;10.90;99.90
56256;DHT22;57229;51.432;-2.598;2024-01-30T13:34:22;10.00;99.90
56256;DHT22;57229;51.432;-2.598;2024-01-30T13:36:48;9.90;99.90
56256;DHT22;57229;51.432;-2.598;2024-01-30T13:39:14;9.90;99.90
56256;DHT22;57229;51.432;-2.598;2024-01-30T13:41:41;9.80;99.90
56256;DHT22;57229;51.432;-2.598;2024-01-30T13:44:07;9.90;99.90
56256;DHT22;57229;51.432;-2.598;2024-01-30T13:46:34;9.80;99.90
56256;DHT22;57229;51.432;-2.598;2024-01-30T13:48:59;10.00;99.90
56256;DHT22;57229;51.432;-2.598;2024-01-30T13:51:25;9.60;99.90
56256;DHT22;57229;51.432;-2.598;2024-01-30T13:53:51;9.50;99.90
56256;DHT22;57229;51.432;-2.598;2024-01-30T13:56:16;9.40;99.90
56256;DHT22;57229;51.432;-2.598;2024-01-30T13:58:42;9.30;99.90
56256;DHT22;57229;51.432;-2.598;2024-01-30T14:01:08;9.20;99.90
56256;DHT22;57229;51.432;-2.598;2024-01-30T14:03:35;9.10;99.90
56256;DHT22;57229;51.432;-2.598;2024-01-30T14:06:01;9.10;99.90
56256;DHT22;57229;51.432;-2.598;2024-01-30T14:08:26;9.00;99.90
56256;DHT22;57229;51.432;-2.598;2024-01-30T14:10:54;9.00;99.90
56256;DHT22;57229;51.432;-2.598;2024-01-30T14:13:20;8.90;99.90
56256;DHT22;57229;51.432;-2.598;2024-01-30T14:15:48;8.80;99.90
56256;DHT22;57229;51.432;-2.598;2024-01-30T14:18:13;8.80;99.90
56256;DHT22;57229;51.432;-2.598;2024-01-30T14:20:39;9.20;99.90
56256;DHT22;57229;51.432;-2.598;2024-01-30T14:23:05;8.80;99.90
56256;DHT22;57229;51.432;-2.598;2024-01-30T14:25:30;8.80;99.90
56256;DHT22;57229;51.432;-2.598;2024-01-30T14:27:56;8.80;99.90
56256;DHT22;57229;51.432;-2.598;2024-01-30T14:30:21;8.80;99.90
56256;DHT22;57229;51.432;-2.598;2024-01-30T14:32:47;8.80;99.90
56256;DHT22;57229;51.432;-2.598;2024-01-30T14:35:14;8.80;99.90
56256;DHT22;57229;51.432;-2.598;2024-01-30T14:37:40;8.80;99.90
56256;DHT22;57229;51.432;-2.598;2024-01-30T14:40:06;9.00;99.90
56256;DHT22;57229;51.432;-2.598;2024-01-30T14:42:35;8.70;99.90
56256;DHT22;57229;51.432;-2.598;2024-01-30T14:45:05;9.70;99.90
56256;DHT22;57229;51.432;-2.598;2024-01-30T14:47:31;8.70;99.90
56256;DHT22;57229;51.432;-2.598;2024-01-30T14:49:57;8.70;99.90
56256;DHT22;57229;51.432;-2.598;2024-01-30T14:52:23;8.80;99.90
56256;DHT22;57229;51.432;-2.598;2024-01-30T14:54:49;8.80;99.90
56256;DHT22;57229;51.432;-2.598;2024-01-30T14:57:14;8.90;99.90
56256;DHT22;57229;51.432;-2.598;2024-01-30T14:59:40;8.90;99.90
56256;DHT22;57229;51.432;-2.598;2024-01-30T15:02:06;10.00;99.90
56256;DHT22;57229;51.432;-2.598;2024-01-30T15:04:32;8.90;99.90
56256;DHT22;57229;51.432;-2.598;2024-01-30T15:06:57;9.00;99.90
56256;DHT22;57229;51.432;-2.598;2024-01-30T15:09:23;9.00;99.90
56256;DHT22;57229;51.432;-2.598;2024-01-30T15:11:51;9.00;99.90
56256;DHT22;57229;51.432;-2.598;2024-01-30T15:14:17;9.00;99.90
56256;DHT22;57229;51.432;-2.598;2024-01-30T15:16:43;9.00;99.90
56256;DHT22;57229;51.432;-2.598;2024-01-30T15:19:08;9.40;99.90
56256;DHT22;57229;51.432;-2.598;2024-01-30T15:21:34;9.20;99.90
56256;DHT22;57229;51.432;-2.598;2024-01-30T15:24:00;9.20;99.90